sensor_id;sensor_type;location;lat;lon;timestamp;temperature;humidity
74940;HTU21D;63505;45.226;37.908;2023-04-06T00:02:12;11.32;81.02
74940;HTU21D;63505;45.226;37.908;2023-04-06T00:04:38;11.29;81.34
74940;HTU21D;63505;45.226;37.908;2023-04-06T00:07:04;11.29;81.33
74940;HTU21D;63505;45.226;37.908;2023-04-06T00:09:30;11.27;81.30
74940;HTU21D;63505;45.226;37.908;2023-04-06T00:11:56;11.27;81.27
74940;HTU21D;63505;45.226;37.908;2023-04-06T00:14:23;11.30;81.17
74940;HTU21D;63505;45.226;37.908;2023-04-06T00:16:49;11.32;81.07
74940;HTU21D;63505;45.226;37.908;2023-04-06T00:19:15;11.36;80.98
74940;HTU21D;63505;45.226;37.908;2023-04-06T00:21:41;11.33;80.89
74940;HTU21D;63505;45.226;37.908;2023-04-06T00:24:07;11.33;80.84
74940;HTU21D;63505;45.226;37.908;2023-04-06T00:26:33;11.33;80.82
74940;HTU21D;63505;45.226;37.908;2023-04-06T00:28:58;11.31;80.79
74940;HTU21D;63505;45.226;37.908;2023-04-06T00:31:24;11.33;80.78
74940;HTU21D;63505;45.226;37.908;2023-04-06T00:33:50;11.34;80.70
74940;HTU21D;63505;45.226;37.908;2023-04-06T00:36:16;11.33;80.69
74940;HTU21D;63505;45.226;37.908;2023-04-06T00:38:42;11.33;80.71
74940;HTU21D;63505;45.226;37.908;2023-04-06T00:41:08;11.33;80.61
74940;HTU21D;63505;45.226;37.908;2023-04-06T00:43:34;11.32;80.64
74940;HTU21D;63505;45.226;37.908;2023-04-06T00:46:00;11.31;80.57
74940;HTU21D;63505;45.226;37.908;2023-04-06T00:48:26;11.31;80.59
74940;HTU21D;63505;45.226;37.908;2023-04-06T00:50:52;11.33;80.53
74940;HTU21D;63505;45.226;37.908;2023-04-06T00:53:18;11.32;80.46
74940;HTU21D;63505;45.226;37.908;2023-04-06T00:55:44;11.32;80.40
74940;HTU21D;63505;45.226;37.908;2023-04-06T00:58:10;11.30;80.45
74940;HTU21D;63505;45.226;37.908;2023-04-06T01:00:45;11.28;80.41
74940;HTU21D;63505;45.226;37.908;2023-04-06T01:03:16;11.24;80.47
74940;HTU21D;63505;45.226;37.908;2023-04-06T01:05:42;11.20;80.56
74940;HTU21D;63505;45.226;37.908;2023-04-06T01:08:24;11.15;80.63
74940;HTU21D;63505;45.226;37.908;2023-04-06T01:10:55;11.12;80.75
74940;HTU21D;63505;45.226;37.908;2023-04-06T01:13:27;11.05;80.90
74940;HTU21D;63505;45.226;37.908;2023-04-06T01:15:57;11.07;80.95
74940;HTU21D;63505;45.226;37.908;2023-04-06T01:18:40;10.98;81.12
74940;HTU21D;63505;45.226;37.908;2023-04-06T01:21:20;10.96;81.31
74940;HTU21D;63505;45.226;37.908;2023-04-06T01:24:15;10.96;81.27
74940;HTU21D;63505;45.226;37.908;2023-04-06T01:27:03;10.94;81.26
74940;HTU21D;63505;45.226;37.908;2023-04-06T01:29:50;10.94;81.23
74940;HTU21D;63505;45.226;37.908;2023-04-06T01:32:30;10.92;81.19
74940;HTU21D;63505;45.226;37.908;2023-04-06T01:34:57;10.89;81.13
74940;HTU21D;63505;45.226;37.908;2023-04-06T01:37:23;10.85;81.16
74940;HTU21D;63505;45.226;37.908;2023-04-06T01:39:52;10.83;81.19
74940;HTU21D;63505;45.226;37.908;2023-04-06T01:42:28;10.78;81.33
74940;HTU21D;63505;45.226;37.908;2023-04-06T01:44:56;10.75;81.47
74940;HTU21D;63505;45.226;37.908;2023-04-06T01:47:22;10.71;81.41
74940;HTU21D;63505;45.226;37.908;2023-04-06T01:49:49;10.68;81.52
74940;HTU21D;63505;45.226;37.908;2023-04-06T01:52:16;10.65;81.53
74940;HTU21D;63505;45.226;37.908;2023-04-06T01:54:48;10.59;81.51
74940;HTU21D;63505;45.226;37.908;2023-04-06T01:57:19;10.58;81.53
74940;HTU21D;63505;45.226;37.908;2023-04-06T01:59:55;10.52;81.54
74940;HTU21D;63505;45.226;37.908;2023-04-06T02:02:28;10.48;81.62
74940;HTU21D;63505;45.226;37.908;2023-04-06T02:05:04;10.42;81.64
74940;HTU21D;63505;45.226;37.908;2023-04-06T02:07:30;10.38;81.74
74940;HTU21D;63505;45.226;37.908;2023-04-06T02:09:56;10.37;81.71
74940;HTU21D;63505;45.226;37.908;2023-04-06T02:12:34;10.37;81.68
74940;HTU21D;63505;45.226;37.908;2023-04-06T02:15:00;10.39;81.61
74940;HTU21D;63505;45.226;37.908;2023-04-06T02:17:26;10.39;81.49
74940;HTU21D;63505;45.226;37.908;2023-04-06T02:19:53;10.40;81.45
74940;HTU21D;63505;45.226;37.908;2023-04-06T02:22:18;10.39;81.39
74940;HTU21D;63505;45.226;37.908;2023-04-06T02:24:45;10.37;81.38
74940;HTU21D;63505;45.226;37.908;2023-04-06T02:27:13;10.40;81.28
74940;HTU21D;63505;45.226;37.908;2023-04-06T02:29:39;10.42;81.20
74940;HTU21D;63505;45.226;37.908;2023-04-06T02:32:05;10.42;81.11
74940;HTU21D;63505;45.226;37.908;2023-04-06T02:34:32;10.43;81.04
74940;HTU21D;63505;45.226;37.908;2023-04-06T02:36:57;10.40;81.07
74940;HTU21D;63505;45.226;37.908;2023-04-06T02:39:23;10.41;81.04
74940;HTU21D;63505;45.226;37.908;2023-04-06T02:41:50;10.42;80.97
74940;HTU21D;63505;45.226;37.908;2023-04-06T02:44:20;10.45;80.89
74940;HTU21D;63505;45.226;37.908;2023-04-06T02:46:46;10.45;80.79
74940;HTU21D;63505;45.226;37.908;2023-04-06T02:49:12;10.46;80.70
74940;HTU21D;63505;45.226;37.908;2023-04-06T02:51:39;10.45;80.63
74940;HTU21D;63505;45.226;37.908;2023-04-06T02:54:18;10.44;80.56
74940;HTU21D;63505;45.226;37.908;2023-04-06T02:56:45;10.43;80.52
74940;HTU21D;63505;45.226;37.908;2023-04-06T02:59:11;10.37;80.55
74940;HTU21D;63505;45.226;37.908;2023-04-06T03:01:39;10.35;80.59
74940;HTU21D;63505;45.226;37.908;2023-04-06T03:04:05;10.33;80.56
74940;HTU21D;63505;45.226;37.908;2023-04-06T03:06:31;10.31;80.59
74940;HTU21D;63505;45.226;37.908;2023-04-06T03:09:06;10.34;80.51
74940;HTU21D;63505;45.226;37.908;2023-04-06T03:11:32;10.35;80.44
74940;HTU21D;63505;45.226;37.908;2023-04-06T03:13:58;10.37;80.33
74940;HTU21D;63505;45.226;37.908;2023-04-06T03:16:25;10.39;80.27
74940;HTU21D;63505;45.226;37.908;2023-04-06T03:18:51;10.36;80.18
74940;HTU21D;63505;45.226;37.908;2023-04-06T03:21:17;10.36;80.15
74940;HTU21D;63505;45.226;37.908;2023-04-06T03:23:50;10.35;80.28
74940;HTU21D;63505;45.226;37.908;2023-04-06T03:26:17;10.38;80.22
74940;HTU21D;63505;45.226;37.908;2023-04-06T03:28:43;10.37;80.16
74940;HTU21D;63505;45.226;37.908;2023-04-06T03:31:10;10.36;80.17
74940;HTU21D;63505;45.226;37.908;2023-04-06T03:33:45;10.34;80.23
74940;HTU21D;63505;45.226;37.908;2023-04-06T03:36:19;10.33;80.27
74940;HTU21D;63505;45.226;37.908;2023-04-06T03:38:44;10.36;80.31
74940;HTU21D;63505;45.226;37.908;2023-04-06T03:41:12;10.37;80.25
74940;HTU21D;63505;45.226;37.908;2023-04-06T03:43:42;10.38;80.25
74940;HTU21D;63505;45.226;37.908;2023-04-06T03:46:08;10.38;80.27
74940;HTU21D;63505;45.226;37.908;2023-04-06T03:48:34;10.37;80.25
74940;HTU21D;63505;45.226;37.908;2023-04-06T03:51:03;10.38;80.27
74940;HTU21D;63505;45.226;37.908;2023-04-06T03:53:30;10.43;80.23
74940;HTU21D;63505;45.226;37.908;2023-04-06T03:55:55;10.48;80.14
74940;HTU21D;63505;45.226;37.908;2023-04-06T03:58:21;10.48;80.12
74940;HTU21D;63505;45.226;37.908;2023-04-06T04:00:47;10.49;80.11
74940;HTU21D;63505;45.226;37.908;2023-04-06T04:03:13;10.49;80.11
74940;HTU21D;63505;45.226;37.908;2023-04-06T04:05:39;10.48;80.10
74940;HTU21D;63505;45.226;37.908;2023-04-06T04:08:05;10.48;80.15
74940;HTU21D;63505;45.226;37.908;2023-04-06T04:10:31;10.50;80.10
74940;HTU21D;63505;45.226;37.908;2023-04-06T04:12:57;10.43;80.20
74940;HTU21D;63505;45.226;37.908;2023-04-06T04:15:23;10.44;80.29
74940;HTU21D;63505;45.226;37.908;2023-04-06T04:17:49;10.48;80.25
74940;HTU21D;63505;45.226;37.908;2023-04-06T04:20:16;10.46;80.19
74940;HTU21D;63505;45.226;37.908;2023-04-06T04:22:42;10.44;80.26
74940;HTU21D;63505;45.226;37.908;2023-04-06T04:25:09;10.42;80.30
74940;HTU21D;63505;45.226;37.908;2023-04-06T04:27:40;10.40;80.33
74940;HTU21D;63505;45.226;37.908;2023-04-06T04:30:07;10.37;80.34
74940;HTU21D;63505;45.226;37.908;2023-04-06T04:32:33;10.37;80.43
74940;HTU21D;63505;45.226;37.908;2023-04-06T04:35:01;10.29;80.50
74940;HTU21D;63505;45.226;37.908;2023-04-06T04:37:34;10.26;80.68
74940;HTU21D;63505;45.226;37.908;2023-04-06T04:40:02;10.23;80.78
74940;HTU21D;63505;45.226;37.908;2023-04-06T04:42:32;10.21;80.85
74940;HTU21D;63505;45.226;37.908;2023-04-06T04:44:59;10.21;80.94
74940;HTU21D;63505;45.226;37.908;2023-04-06T04:47:32;10.18;80.97
74940;HTU21D;63505;45.226;37.908;2023-04-06T04:49:59;10.19;81.01
74940;HTU21D;63505;45.226;37.908;2023-04-06T04:52:26;10.22;81.01
74940;HTU21D;63505;45.226;37.908;2023-04-06T04:55:10;10.23;80.94
74940;HTU21D;63505;45.226;37.908;2023-04-06T04:57:36;10.23;80.98
74940;HTU21D;63505;45.226;37.908;2023-04-06T05:00:04;10.22;81.14
74940;HTU21D;63505;45.226;37.908;2023-04-06T05:02:32;10.26;81.20
74940;HTU21D;63505;45.226;37.908;2023-04-06T05:05:09;10.33;81.12
74940;HTU21D;63505;45.226;37.908;2023-04-06T05:07:36;10.36;81.11
74940;HTU21D;63505;45.226;37.908;2023-04-06T05:10:04;10.37;81.09
74940;HTU21D;63505;45.226;37.908;2023-04-06T05:12:37;10.33;81.34
74940;HTU21D;63505;45.226;37.908;2023-04-06T05:15:08;10.31;81.52
74940;HTU21D;63505;45.226;37.908;2023-04-06T05:17:34;10.33;81.58
74940;HTU21D;63505;45.226;37.908;2023-04-06T05:20:01;10.37;81.67
74940;HTU21D;63505;45.226;37.908;2023-04-06T05:22:30;10.40;81.65
74940;HTU21D;63505;45.226;37.908;2023-04-06T05:40:37;10.81;82.68
74940;HTU21D;63505;45.226;37.908;2023-04-06T05:43:09;10.86;82.43
74940;HTU21D;63505;45.226;37.908;2023-04-06T05:45:37;10.87;82.13
74940;HTU21D;63505;45.226;37.908;2023-04-06T05:48:05;10.79;81.88
74940;HTU21D;63505;45.226;37.908;2023-04-06T05:50:31;10.75;81.79
74940;HTU21D;63505;45.226;37.908;2023-04-06T05:52:58;10.75;81.63
74940;HTU21D;63505;45.226;37.908;2023-04-06T05:55:29;10.73;81.48
74940;HTU21D;63505;45.226;37.908;2023-04-06T05:58:08;10.72;81.35
74940;HTU21D;63505;45.226;37.908;2023-04-06T06:00:35;10.72;81.36
74940;HTU21D;63505;45.226;37.908;2023-04-06T06:03:04;10.77;81.24
74940;HTU21D;63505;45.226;37.908;2023-04-06T06:05:33;10.72;81.08
74940;HTU21D;63505;45.226;37.908;2023-04-06T06:08:06;10.74;81.11
74940;HTU21D;63505;45.226;37.908;2023-04-06T06:10:33;10.72;81.08
74940;HTU21D;63505;45.226;37.908;2023-04-06T06:12:59;10.72;81.05
74940;HTU21D;63505;45.226;37.908;2023-04-06T06:15:26;10.81;81.00
74940;HTU21D;63505;45.226;37.908;2023-04-06T06:17:52;10.89;80.83
74940;HTU21D;63505;45.226;37.908;2023-04-06T06:20:18;10.97;80.68
74940;HTU21D;63505;45.226;37.908;2023-04-06T06:22:44;11.00;80.58
74940;HTU21D;63505;45.226;37.908;2023-04-06T06:25:16;11.07;80.53
74940;HTU21D;63505;45.226;37.908;2023-04-06T06:27:44;11.13;80.42
74940;HTU21D;63505;45.226;37.908;2023-04-06T06:30:10;11.11;80.33
74940;HTU21D;63505;45.226;37.908;2023-04-06T06:32:40;11.07;80.33
74940;HTU21D;63505;45.226;37.908;2023-04-06T06:35:06;10.98;80.26
74940;HTU21D;63505;45.226;37.908;2023-04-06T06:37:32;10.96;80.14
74940;HTU21D;63505;45.226;37.908;2023-04-06T06:40:00;10.97;80.06
74940;HTU21D;63505;45.226;37.908;2023-04-06T06:42:26;11.02;79.90
74940;HTU21D;63505;45.226;37.908;2023-04-06T06:45:17;11.01;79.72
74940;HTU21D;63505;45.226;37.908;2023-04-06T06:47:45;11.02;79.64
74940;HTU21D;63505;45.226;37.908;2023-04-06T06:50:10;11.04;79.59
74940;HTU21D;63505;45.226;37.908;2023-04-06T06:52:36;11.08;79.50
74940;HTU21D;63505;45.226;37.908;2023-04-06T06:55:02;11.08;79.44
74940;HTU21D;63505;45.226;37.908;2023-04-06T06:57:28;11.10;79.40
74940;HTU21D;63505;45.226;37.908;2023-04-06T06:59:54;11.11;79.35
74940;HTU21D;63505;45.226;37.908;2023-04-06T07:02:21;11.14;79.32
74940;HTU21D;63505;45.226;37.908;2023-04-06T07:04:48;11.12;79.20
74940;HTU21D;63505;45.226;37.908;2023-04-06T07:07:15;11.13;79.22
74940;HTU21D;63505;45.226;37.908;2023-04-06T07:09:42;11.13;79.17
74940;HTU21D;63505;45.226;37.908;2023-04-06T07:12:08;11.16;79.17
74940;HTU21D;63505;45.226;37.908;2023-04-06T07:14:34;11.20;78.99
74940;HTU21D;63505;45.226;37.908;2023-04-06T07:17:00;11.19;78.95
74940;HTU21D;63505;45.226;37.908;2023-04-06T07:19:26;11.17;78.91
74940;HTU21D;63505;45.226;37.908;2023-04-06T07:21:52;11.22;78.84
74940;HTU21D;63505;45.226;37.908;2023-04-06T07:24:18;11.27;78.68
74940;HTU21D;63505;45.226;37.908;2023-04-06T07:26:44;11.37;78.59
74940;HTU21D;63505;45.226;37.908;2023-04-06T07:29:10;11.45;78.40
74940;HTU21D;63505;45.226;37.908;2023-04-06T07:31:36;11.48;78.14
74940;HTU21D;63505;45.226;37.908;2023-04-06T07:34:03;11.48;77.94
74940;HTU21D;63505;45.226;37.908;2023-04-06T07:36:29;11.61;77.74
74940;HTU21D;63505;45.226;37.908;2023-04-06T07:38:55;11.79;77.49
74940;HTU21D;63505;45.226;37.908;2023-04-06T07:41:22;11.98;77.18
74940;HTU21D;63505;45.226;37.908;2023-04-06T07:43:49;12.10;76.91
74940;HTU21D;63505;45.226;37.908;2023-04-06T07:46:15;12.12;76.16
74940;HTU21D;63505;45.226;37.908;2023-04-06T07:48:41;12.12;75.60
74940;HTU21D;63505;45.226;37.908;2023-04-06T07:51:07;12.10;75.32
74940;HTU21D;63505;45.226;37.908;2023-04-06T07:53:38;12.04;74.97
74940;HTU21D;63505;45.226;37.908;2023-04-06T07:56:04;12.04;74.89
74940;HTU21D;63505;45.226;37.908;2023-04-06T07:58:30;12.01;74.79
74940;HTU21D;63505;45.226;37.908;2023-04-06T08:00:56;12.06;74.85
74940;HTU21D;63505;45.226;37.908;2023-04-06T08:03:23;12.07;74.83
74940;HTU21D;63505;45.226;37.908;2023-04-06T08:05:51;12.08;74.78
74940;HTU21D;63505;45.226;37.908;2023-04-06T08:08:18;12.03;74.63
74940;HTU21D;63505;45.226;37.908;2023-04-06T08:10:45;11.97;74.32
74940;HTU21D;63505;45.226;37.908;2023-04-06T08:13:10;11.91;74.24
74940;HTU21D;63505;45.226;37.908;2023-04-06T08:15:36;11.87;74.31
74940;HTU21D;63505;45.226;37.908;2023-04-06T08:18:02;11.94;74.37
74940;HTU21D;63505;45.226;37.908;2023-04-06T08:20:28;12.01;74.19
74940;HTU21D;63505;45.226;37.908;2023-04-06T08:22:55;11.93;73.92
74940;HTU21D;63505;45.226;37.908;2023-04-06T08:25:20;11.94;73.95
74940;HTU21D;63505;45.226;37.908;2023-04-06T08:27:46;11.98;73.96
74940;HTU21D;63505;45.226;37.908;2023-04-06T08:30:12;11.98;74.09
74940;HTU21D;63505;45.226;37.908;2023-04-06T08:32:40;11.99;74.27
74940;HTU21D;63505;45.226;37.908;2023-04-06T08:35:07;12.05;74.37
74940;HTU21D;63505;45.226;37.908;2023-04-06T08:37:33;12.17;74.42
74940;HTU21D;63505;45.226;37.908;2023-04-06T08:39:59;12.27;74.27
74940;HTU21D;63505;45.226;37.908;2023-04-06T08:42:26;12.31;74.23
74940;HTU21D;63505;45.226;37.908;2023-04-06T08:44:56;12.36;74.10
74940;HTU21D;63505;45.226;37.908;2023-04-06T08:47:22;12.38;74.09
74940;HTU21D;63505;45.226;37.908;2023-04-06T08:49:48;12.48;74.06
74940;HTU21D;63505;45.226;37.908;2023-04-06T08:52:18;12.61;73.96
74940;HTU21D;63505;45.226;37.908;2023-04-06T08:54:44;12.81;73.80
74940;HTU21D;63505;45.226;37.908;2023-04-06T08:57:10;13.03;73.65
74940;HTU21D;63505;45.226;37.908;2023-04-06T08:59:37;13.31;73.44
74940;HTU21D;63505;45.226;37.908;2023-04-06T09:02:04;13.54;73.08
74940;HTU21D;63505;45.226;37.908;2023-04-06T09:04:34;13.64;72.76
74940;HTU21D;63505;45.226;37.908;2023-04-06T09:07:01;13.77;72.55
74940;HTU21D;63505;45.226;37.908;2023-04-06T09:09:27;13.94;72.36
74940;HTU21D;63505;45.226;37.908;2023-04-06T09:11:53;14.06;72.06
74940;HTU21D;63505;45.226;37.908;2023-04-06T09:17:02;14.21;71.58
74940;HTU21D;63505;45.226;37.908;2023-04-06T09:19:27;14.15;71.66
74940;HTU21D;63505;45.226;37.908;2023-04-06T09:22:06;13.98;71.69
74940;HTU21D;63505;45.226;37.908;2023-04-06T09:24:52;13.74;71.95
74940;HTU21D;63505;45.226;37.908;2023-04-06T09:27:32;13.61;72.22
74940;HTU21D;63505;45.226;37.908;2023-04-06T09:30:17;13.43;72.26
74940;HTU21D;63505;45.226;37.908;2023-04-06T09:32:51;13.23;72.35
74940;HTU21D;63505;45.226;37.908;2023-04-06T09:35:18;13.05;72.51
74940;HTU21D;63505;45.226;37.908;2023-04-06T09:37:47;12.85;72.47
74940;HTU21D;63505;45.226;37.908;2023-04-06T09:40:13;12.69;72.64
74940;HTU21D;63505;45.226;37.908;2023-04-06T09:42:45;12.61;72.71
74940;HTU21D;63505;45.226;37.908;2023-04-06T09:45:12;12.50;72.85
74940;HTU21D;63505;45.226;37.908;2023-04-06T09:47:42;12.45;72.96
74940;HTU21D;63505;45.226;37.908;2023-04-06T09:50:11;12.42;73.03
74940;HTU21D;63505;45.226;37.908;2023-04-06T09:52:47;12.40;73.05
74940;HTU21D;63505;45.226;37.908;2023-04-06T09:55:33;12.40;73.02
74940;HTU21D;63505;45.226;37.908;2023-04-06T09:58:06;12.40;72.99
74940;HTU21D;63505;45.226;37.908;2023-04-06T10:00:35;12.44;72.96
74940;HTU21D;63505;45.226;37.908;2023-04-06T10:03:18;12.51;72.85
74940;HTU21D;63505;45.226;37.908;2023-04-06T10:05:55;12.63;72.71
74940;HTU21D;63505;45.226;37.908;2023-04-06T10:08:29;12.74;72.53
74940;HTU21D;63505;45.226;37.908;2023-04-06T10:10:55;12.86;72.45
74940;HTU21D;63505;45.226;37.908;2023-04-06T10:13:23;12.92;72.25
74940;HTU21D;63505;45.226;37.908;2023-04-06T10:15:50;12.84;72.16
74940;HTU21D;63505;45.226;37.908;2023-04-06T10:18:17;12.75;72.16
74940;HTU21D;63505;45.226;37.908;2023-04-06T10:20:53;12.71;72.17
74940;HTU21D;63505;45.226;37.908;2023-04-06T10:23:31;12.73;72.16
74940;HTU21D;63505;45.226;37.908;2023-04-06T10:25:59;12.74;72.13
74940;HTU21D;63505;45.226;37.908;2023-04-06T10:28:30;12.75;72.11
74940;HTU21D;63505;45.226;37.908;2023-04-06T10:30:58;12.76;71.96
74940;HTU21D;63505;45.226;37.908;2023-04-06T10:33:24;12.80;71.93
74940;HTU21D;63505;45.226;37.908;2023-04-06T10:35:50;12.87;71.91
74940;HTU21D;63505;45.226;37.908;2023-04-06T10:38:16;12.91;71.85
74940;HTU21D;63505;45.226;37.908;2023-04-06T10:40:47;12.92;71.87
74940;HTU21D;63505;45.226;37.908;2023-04-06T10:43:20;12.93;71.83
74940;HTU21D;63505;45.226;37.908;2023-04-06T10:45:55;12.91;71.89
74940;HTU21D;63505;45.226;37.908;2023-04-06T10:48:21;12.93;71.91
74940;HTU21D;63505;45.226;37.908;2023-04-06T10:50:49;12.90;71.89
74940;HTU21D;63505;45.226;37.908;2023-04-06T10:55:49;12.80;71.97
74940;HTU21D;63505;45.226;37.908;2023-04-06T10:58:16;12.80;71.99
74940;HTU21D;63505;45.226;37.908;2023-04-06T11:00:46;12.85;71.99
74940;HTU21D;63505;45.226;37.908;2023-04-06T11:03:12;12.91;71.89
74940;HTU21D;63505;45.226;37.908;2023-04-06T11:05:38;12.93;71.86
74940;HTU21D;63505;45.226;37.908;2023-04-06T11:08:08;12.96;71.79
74940;HTU21D;63505;45.226;37.908;2023-04-06T11:10:34;13.03;71.69
74940;HTU21D;63505;45.226;37.908;2023-04-06T11:13:00;13.06;71.59
74940;HTU21D;63505;45.226;37.908;2023-04-06T11:15:26;13.03;71.55
74940;HTU21D;63505;45.226;37.908;2023-04-06T11:17:52;13.02;71.61
74940;HTU21D;63505;45.226;37.908;2023-04-06T11:20:18;12.96;71.54
74940;HTU21D;63505;45.226;37.908;2023-04-06T11:22:51;12.90;71.63
74940;HTU21D;63505;45.226;37.908;2023-04-06T11:25:18;12.89;71.67
74940;HTU21D;63505;45.226;37.908;2023-04-06T11:27:46;12.87;71.69
74940;HTU21D;63505;45.226;37.908;2023-04-06T11:30:13;12.88;71.69
74940;HTU21D;63505;45.226;37.908;2023-04-06T11:32:44;12.88;71.65
74940;HTU21D;63505;45.226;37.908;2023-04-06T11:35:20;12.76;71.58
74940;HTU21D;63505;45.226;37.908;2023-04-06T11:37:48;12.73;71.64
74940;HTU21D;63505;45.226;37.908;2023-04-06T11:40:14;12.73;71.66
74940;HTU21D;63505;45.226;37.908;2023-04-06T11:42:39;12.74;71.66
74940;HTU21D;63505;45.226;37.908;2023-04-06T11:45:07;12.76;71.61
74940;HTU21D;63505;45.226;37.908;2023-04-06T11:47:37;12.75;71.61
74940;HTU21D;63505;45.226;37.908;2023-04-06T11:52:37;12.72;71.57
74940;HTU21D;63505;45.226;37.908;2023-04-06T11:55:18;12.73;71.54
74940;HTU21D;63505;45.226;37.908;2023-04-06T11:57:44;12.74;71.54
74940;HTU21D;63505;45.226;37.908;2023-04-06T12:00:11;12.74;71.52
74940;HTU21D;63505;45.226;37.908;2023-04-06T12:02:38;12.75;71.51
74940;HTU21D;63505;45.226;37.908;2023-04-06T12:05:05;12.76;71.49
74940;HTU21D;63505;45.226;37.908;2023-04-06T12:07:32;12.79;71.50
74940;HTU21D;63505;45.226;37.908;2023-04-06T12:10:00;12.74;71.42
74940;HTU21D;63505;45.226;37.908;2023-04-06T12:12:26;12.71;71.42
74940;HTU21D;63505;45.226;37.908;2023-04-06T12:14:52;12.74;71.39
74940;HTU21D;63505;45.226;37.908;2023-04-06T12:17:19;12.76;71.32
74940;HTU21D;63505;45.226;37.908;2023-04-06T12:19:45;12.74;71.28
74940;HTU21D;63505;45.226;37.908;2023-04-06T12:22:12;12.71;71.29
74940;HTU21D;63505;45.226;37.908;2023-04-06T12:24:37;12.67;71.35
74940;HTU21D;63505;45.226;37.908;2023-04-06T12:27:03;12.72;71.38
74940;HTU21D;63505;45.226;37.908;2023-04-06T12:29:29;12.80;71.31
74940;HTU21D;63505;45.226;37.908;2023-04-06T12:31:55;12.85;71.19
74940;HTU21D;63505;45.226;37.908;2023-04-06T12:34:21;12.86;71.13
74940;HTU21D;63505;45.226;37.908;2023-04-06T12:36:47;12.88;71.13
74940;HTU21D;63505;45.226;37.908;2023-04-06T12:39:13;12.88;71.08
74940;HTU21D;63505;45.226;37.908;2023-04-06T12:41:40;12.89;71.10
74940;HTU21D;63505;45.226;37.908;2023-04-06T12:44:06;12.86;71.11
74940;HTU21D;63505;45.226;37.908;2023-04-06T12:46:32;12.85;71.16
74940;HTU21D;63505;45.226;37.908;2023-04-06T12:48:58;12.85;71.12
74940;HTU21D;63505;45.226;37.908;2023-04-06T12:51:27;12.75;71.19
74940;HTU21D;63505;45.226;37.908;2023-04-06T12:53:54;12.60;71.40
74940;HTU21D;63505;45.226;37.908;2023-04-06T12:56:20;12.42;71.74
74940;HTU21D;63505;45.226;37.908;2023-04-06T12:58:51;12.25;72.16
74940;HTU21D;63505;45.226;37.908;2023-04-06T13:01:17;12.11;72.48
74940;HTU21D;63505;45.226;37.908;2023-04-06T13:03:43;12.02;72.75
74940;HTU21D;63505;45.226;37.908;2023-04-06T13:06:10;11.97;72.97
74940;HTU21D;63505;45.226;37.908;2023-04-06T13:08:37;11.92;73.09
74940;HTU21D;63505;45.226;37.908;2023-04-06T13:11:04;11.92;73.19
74940;HTU21D;63505;45.226;37.908;2023-04-06T13:13:31;11.94;73.19
74940;HTU21D;63505;45.226;37.908;2023-04-06T13:16:03;11.93;73.17
74940;HTU21D;63505;45.226;37.908;2023-04-06T13:18:30;11.93;73.22
74940;HTU21D;63505;45.226;37.908;2023-04-06T13:20:56;11.92;73.26
74940;HTU21D;63505;45.226;37.908;2023-04-06T13:23:23;11.89;73.31
74940;HTU21D;63505;45.226;37.908;2023-04-06T13:25:58;11.86;73.40
74940;HTU21D;63505;45.226;37.908;2023-04-06T13:28:25;11.90;73.46
74940;HTU21D;63505;45.226;37.908;2023-04-06T13:30:52;11.90;73.51
74940;HTU21D;63505;45.226;37.908;2023-04-06T13:33:17;11.89;73.61
74940;HTU21D;63505;45.226;37.908;2023-04-06T13:35:46;11.87;73.76
74940;HTU21D;63505;45.226;37.908;2023-04-06T13:38:13;11.86;73.88
74940;HTU21D;63505;45.226;37.908;2023-04-06T13:40:40;11.86;73.99
74940;HTU21D;63505;45.226;37.908;2023-04-06T13:43:07;11.84;74.07
74940;HTU21D;63505;45.226;37.908;2023-04-06T13:45:33;11.75;74.28
74940;HTU21D;63505;45.226;37.908;2023-04-06T13:47:59;11.73;74.43
74940;HTU21D;63505;45.226;37.908;2023-04-06T13:50:26;11.70;74.56
74940;HTU21D;63505;45.226;37.908;2023-04-06T13:52:52;11.69;74.69
74940;HTU21D;63505;45.226;37.908;2023-04-06T13:55:18;11.67;74.84
74940;HTU21D;63505;45.226;37.908;2023-04-06T13:57:44;11.66;74.98
74940;HTU21D;63505;45.226;37.908;2023-04-06T14:00:10;11.67;75.05
74940;HTU21D;63505;45.226;37.908;2023-04-06T14:02:39;11.67;75.12
74940;HTU21D;63505;45.226;37.908;2023-04-06T14:05:05;11.68;75.18
74940;HTU21D;63505;45.226;37.908;2023-04-06T14:07:31;11.68;75.25
74940;HTU21D;63505;45.226;37.908;2023-04-06T14:09:57;11.64;75.34
74940;HTU21D;63505;45.226;37.908;2023-04-06T14:12:23;11.60;75.38
74940;HTU21D;63505;45.226;37.908;2023-04-06T14:14:49;11.57;75.47
74940;HTU21D;63505;45.226;37.908;2023-04-06T14:17:16;11.53;75.57
74940;HTU21D;63505;45.226;37.908;2023-04-06T14:19:41;11.51;75.63
74940;HTU21D;63505;45.226;37.908;2023-04-06T14:22:08;11.48;75.75
74940;HTU21D;63505;45.226;37.908;2023-04-06T14:24:34;11.45;75.83
74940;HTU21D;63505;45.226;37.908;2023-04-06T14:27:01;11.43;75.91
74940;HTU21D;63505;45.226;37.908;2023-04-06T14:29:28;11.41;75.97
74940;HTU21D;63505;45.226;37.908;2023-04-06T14:31:54;11.38;76.05
74940;HTU21D;63505;45.226;37.908;2023-04-06T14:34:26;11.36;76.10
74940;HTU21D;63505;45.226;37.908;2023-04-06T14:36:52;11.31;76.15
74940;HTU21D;63505;45.226;37.908;2023-04-06T14:39:18;11.27;76.22
74940;HTU21D;63505;45.226;37.908;2023-04-06T14:41:44;11.20;76.28
74940;HTU21D;63505;45.226;37.908;2023-04-06T14:44:11;11.09;76.48
74940;HTU21D;63505;45.226;37.908;2023-04-06T14:46:37;10.97;76.87
74940;HTU21D;63505;45.226;37.908;2023-04-06T14:49:03;10.90;77.08
74940;HTU21D;63505;45.226;37.908;2023-04-06T14:51:30;10.83;77.30
74940;HTU21D;63505;45.226;37.908;2023-04-06T14:53:56;10.78;77.43
74940;HTU21D;63505;45.226;37.908;2023-04-06T14:56:23;10.73;77.56
74940;HTU21D;63505;45.226;37.908;2023-04-06T14:58:50;10.70;77.63
74940;HTU21D;63505;45.226;37.908;2023-04-06T15:01:19;10.68;77.71
74940;HTU21D;63505;45.226;37.908;2023-04-06T15:03:46;10.69;77.69
74940;HTU21D;63505;45.226;37.908;2023-04-06T15:06:13;10.70;77.67
74940;HTU21D;63505;45.226;37.908;2023-04-06T15:08:42;10.72;77.64
74940;HTU21D;63505;45.226;37.908;2023-04-06T15:11:09;10.70;77.65
74940;HTU21D;63505;45.226;37.908;2023-04-06T15:13:35;10.68;77.69
74940;HTU21D;63505;45.226;37.908;2023-04-06T15:16:01;10.68;77.72
74940;HTU21D;63505;45.226;37.908;2023-04-06T15:18:27;10.67;77.78
74940;HTU21D;63505;45.226;37.908;2023-04-06T15:20:54;10.68;77.79
74940;HTU21D;63505;45.226;37.908;2023-04-06T15:23:20;10.67;77.82
74940;HTU21D;63505;45.226;37.908;2023-04-06T15:25:47;10.66;77.85
74940;HTU21D;63505;45.226;37.908;2023-04-06T15:28:13;10.66;77.89
74940;HTU21D;63505;45.226;37.908;2023-04-06T15:30:38;10.65;77.92
74940;HTU21D;63505;45.226;37.908;2023-04-06T15:33:07;10.64;77.98